Архив погоды в Кашире

Метеограмма Кашира
Среда, 24 Июля
Время местн. Темп Ветер Видим Явления Облачность нижн/средн/верх Атм. давл. Влжн Точка росы ВНГО R Сост. почвы Tg s
Напр Скр Прв ур.ст ур.м изм
00:00 +15.9° Ю-З 1 - 10 км - переменная облачность 739 759 +0.1 86% +13.6° более 2.5 км - - - -
Вторник, 23 Июля
Время местн. Темп Ветер Видим Явления Облачность нижн/средн/верх Атм. давл. Влжн Точка росы ВНГО R Сост. почвы Tg s
Напр Скр Прв ур.ст ур.м изм
21:00 +18.5° Ю-З 1 - 10 км - облачно с прояснениями 739 758 +0.5 77% +14.4° 1 км 0 - - -
18:00 +21.1° В 2 - 20 км - преимущественно облачно 739 758 -0.4 76% +16.8° 600 м - - - -
15:00 +20.3° В,Ю-В 2 - 10 км - облачно 739 758 -0.4 79% +16.6° 600 м - - - -
12:00 +18.7° В,Ю-В 3 - 10 км - облачно 740 759 -0.2 80% +15.1° 600 м - - - -
09:00 +16.2° В,Ю-В 2 - 10 км ливневый дождь облачно 740 759 -0.5 89% +14.3° 600 м 2 Влажная (без луж) - -
06:00 +16.4° Ю-В 1 - 10 км слабый ливневый дождь облачно 740 759 -0.8 82% +13.4° 600 м - - - -
03:00 +16.3° Ю 1 - 10 км - преимущественно облачно 741 760 -0.5 80% +12.9° 1 км - - - -
00:00 +17.4° Ю 1 - 10 км - преимущественно облачно 741 761 -0.7 79% +13.8° 1 км - - - -
Понедельник, 22 Июля
Время местн. Темп Ветер Видим Явления Облачность нижн/средн/верх Атм. давл. Влжн Точка росы ВНГО R Сост. почвы Tg s
Напр Скр Прв ур.ст ур.м изм
21:00 +18.9° Ю 1 - 10 км облака развиваются {ливневые осадки} преимущественно облачно 742 761 -0.4 77% +14.7° 1 км 0.3 - - -
18:00 +23.8° В,С-В 1 - 20 км облака рассеиваются {ливневые осадки} переменная облачность 742 761 -0.8 44% +10.7° 600 м - - - -
15:00 +21.3° С,С-В 2 - 20 км - преимущественно облачно 743 762 -0.3 68% +15.1° 600 м - - - -
12:00 +23.6° З 2 - 20 км - преимущественно облачно 744 762 -0.8 49% +12.2° 600 м - - - -
09:00 +19.6° Ю-З 1 - 20 км - облачно с прояснениями 744 763 -0.2 73% +14.7° 1 км 0 Влажная (без луж) +13° -
06:00 +14.5° З,Ю-З 1 - 20 км - ясно 744 764 -0.2 91% +13° более 2.5 км - - - -
03:00 +13.6° З 1 - 10 км - ясно 745 764 +0.5 89% +11.9° более 2.5 км - - - -
00:00 +16.2° З 1 - 10 км - ясно 744 764 +0.2 79% +12.5° более 2.5 км - - - -
Воскресенье, 21 Июля
Время местн. Темп Ветер Видим Явления Облачность нижн/средн/верх Атм. давл. Влжн Точка росы ВНГО R Сост. почвы Tg s
Напр Скр Прв ур.ст ур.м изм
21:00 +18° З 1 - 10 км - незначительная облачность 744 763 +0.2 73% +13.1° - 0 - - -
18:00 +21.7° С,С-З 4 - 20 км - переменная облачность 744 763 -0.2 57% +12.8° 600 м - - - -
15:00 +21° З 3 - 20 км - облачно с прояснениями 744 763 +0.1 60% +13° 600 м - - - -
12:00 +17.8° С-З 4 - 10 км - облачно 744 763 +0.6 75% +13.3° 600 м - - - -
09:00 +16.2° З,С-З 2 - 10 км - преимущественно облачно 743 763 +0.5 87% +14° 600 м 0 Влажная (без луж) - -
06:00 +14° З 2 - 10 км - преимущественно облачно 743 762 +0.3 88% +12.1° 1 км - - - -
03:00 +14° З 2 - 10 км - ясно 743 762 +0.4 88% +12.1° более 2.5 км - - - -
00:00 +15.1° З 2 - 10 км - ясно 742 762 +0.4 90% +13.4° более 2.5 км - - - -
Суббота, 20 Июля
Время местн. Темп Ветер Видим Явления Облачность нижн/средн/верх Атм. давл. Влжн Точка росы ВНГО R Сост. почвы Tg s
Напр Скр Прв ур.ст ур.м изм
21:00 +16° З 2 - 10 км ливневый дождь облачно с прояснениями 742 761 +0.5 87% +13.9° 600 м 8 - - -